Alta, West Virginia
Current Conditions -  °F | °C
As of 1:55 AM on Sunday 23 Nov 2014 (Local Time) from KLWB Reporting Station
Clear Clear  
Wind Chill: 28°   Ceiling: Unl
Heat Index: 28°   Visibility: 10mi
Dew Point: 22°   Wind: 3mph
Humidity: 78%   Direction: 40°NE
Pressure: 30.22"   Gusts: NA
Location:  37.8345°N, 80.5736°W
Report Text: KLWB 230655Z AUTO 04003KT 10SM CLR M02/M05 A3022 RMK AO2 T10211054
Loading
Personal Weather Stations






























Interactive Weather Map New forecast layout! Learn more

10-Day Weather Forecast

Advertisements
Track Severe Weather on mobile